createdAt,value
2022-11-24T00:01:03.071Z,10.27
2022-11-24T00:04:07.953Z,10.02
2022-11-24T00:07:10.451Z,10.67
2022-11-24T00:10:13.766Z,11.30
2022-11-24T00:13:16.189Z,11.18
2022-11-24T00:16:20.442Z,10.85
2022-11-24T00:19:24.342Z,9.70
2022-11-24T00:22:26.824Z,11.10
2022-11-24T00:25:29.247Z,11.85
2022-11-24T00:28:32.981Z,11.07
2022-11-24T00:31:37.236Z,11.93
2022-11-24T00:34:42.015Z,11.40
2022-11-24T00:37:44.455Z,12.03
2022-11-24T00:40:49.046Z,11.50
2022-11-24T00:43:52.074Z,11.98
2022-11-24T00:46:54.591Z,12.13
2022-11-24T00:49:58.399Z,11.82
2022-11-24T00:53:01.480Z,12.00
2022-11-24T00:56:04.175Z,12.02
2022-11-24T00:59:06.742Z,12.05
2022-11-24T01:02:09.212Z,10.98
2022-11-24T01:05:13.215Z,11.18
2022-11-24T01:08:15.663Z,12.30
2022-11-24T01:11:20.860Z,11.25
2022-11-24T01:14:24.804Z,11.27
2022-11-24T01:17:27.544Z,12.13
2022-11-24T01:20:32.018Z,11.48
2022-11-24T01:23:34.471Z,11.57
2022-11-24T01:26:37.701Z,10.75
2022-11-24T01:29:40.221Z,10.70
2022-11-24T01:32:42.648Z,11.63
2022-11-24T01:35:46.471Z,11.23
2022-11-24T01:38:49.389Z,10.93
2022-11-24T01:41:52.866Z,10.93
2022-11-24T01:45:28.726Z,10.88
2022-11-24T01:48:38.703Z,10.98
2022-11-24T01:51:48.794Z,10.65
2022-11-24T01:54:55.655Z,11.37
2022-11-24T01:58:03.076Z,11.48
2022-11-24T02:01:05.990Z,11.55
2022-11-24T02:04:13.938Z,12.32
2022-11-24T02:07:18.527Z,12.07
2022-11-24T02:10:21.947Z,12.43
2022-11-24T02:13:25.146Z,12.27
2022-11-24T02:16:27.682Z,12.95
2022-11-24T02:19:43.024Z,13.30
2022-11-24T02:22:53.703Z,13.20
2022-11-24T02:26:07.802Z,12.17
2022-11-24T02:29:13.022Z,13.05
2022-11-24T02:32:16.455Z,13.35
2022-11-24T02:35:19.308Z,12.85
2022-11-24T02:38:30.033Z,12.27
2022-11-24T02:41:32.628Z,13.80
2022-11-24T02:44:40.737Z,15.23
2022-11-24T02:47:43.781Z,13.77
2022-11-24T02:50:46.316Z,15.13
2022-11-24T02:53:48.776Z,13.95
2022-11-24T02:56:51.359Z,13.17
2022-11-24T02:59:55.203Z,15.20
2022-11-24T03:02:58.038Z,14.20
2022-11-24T03:06:00.494Z,14.57
2022-11-24T03:09:03.067Z,12.80
2022-11-24T03:12:06.230Z,13.57
2022-11-24T03:15:11.283Z,12.82
2022-11-24T03:18:13.771Z,12.80
2022-11-24T03:21:16.220Z,11.70
2022-11-24T03:24:18.978Z,12.02
2022-11-24T03:27:21.428Z,12.50
2022-11-24T03:30:25.257Z,12.10
2022-11-24T03:33:27.880Z,12.65
2022-11-24T03:36:30.307Z,11.70
2022-11-24T03:39:32.991Z,12.52
2022-11-24T03:42:35.377Z,12.00
2022-11-24T03:45:45.827Z,11.40
2022-11-24T03:48:48.623Z,10.65
2022-11-24T03:51:51.055Z,11.45
2022-11-24T03:54:53.710Z,11.07
2022-11-24T03:57:56.159Z,11.13
2022-11-24T04:00:59.964Z,11.15
2022-11-24T04:04:03.516Z,10.45
2022-11-24T04:07:05.927Z,10.13
2022-11-24T04:10:08.689Z,9.68
2022-11-24T04:13:13.063Z,10.60
2022-11-24T04:16:16.845Z,8.18
2022-11-24T04:19:19.473Z,8.40
2022-11-24T04:22:22.072Z,8.00
2022-11-24T04:25:24.573Z,7.05
2022-11-24T04:28:27.082Z,7.37
2022-11-24T04:31:31.668Z,7.28
2022-11-24T04:34:34.556Z,6.68
2022-11-24T04:37:37.380Z,6.75
2022-11-24T04:40:39.919Z,6.93
2022-11-24T04:43:42.338Z,7.53
2022-11-24T04:46:46.460Z,7.15
2022-11-24T04:49:49.230Z,6.72
2022-11-24T04:52:52.565Z,6.80
2022-11-24T04:55:54.996Z,7.30
2022-11-24T04:58:57.502Z,7.30
2022-11-24T05:02:01.349Z,7.18
2022-11-24T05:05:04.418Z,7.30
2022-11-24T05:08:06.845Z,7.05
2022-11-24T05:11:09.543Z,7.43
2022-11-24T05:14:11.980Z,7.17
2022-11-24T05:17:15.732Z,7.88
2022-11-24T05:20:18.656Z,8.02
2022-11-24T05:23:21.218Z,8.18
2022-11-24T05:26:23.707Z,8.38
2022-11-24T05:29:26.139Z,8.53
2022-11-24T05:32:29.985Z,8.95
2022-11-24T05:35:32.663Z,8.60
2022-11-24T05:38:35.692Z,9.30
2022-11-24T05:41:38.438Z,8.45
2022-11-24T05:44:40.823Z,9.70
2022-11-24T05:47:45.128Z,11.18
2022-11-24T05:50:53.528Z,12.07
2022-11-24T05:53:56.187Z,12.05
2022-11-24T05:56:58.902Z,13.25
2022-11-24T06:00:02.253Z,12.90
2022-11-24T06:03:16.210Z,13.25
2022-11-24T06:06:18.706Z,13.75
2022-11-24T06:09:21.208Z,15.70
2022-11-24T06:12:23.702Z,16.02
2022-11-24T06:15:26.185Z,18.03
2022-11-24T06:18:30.015Z,20.08
2022-11-24T06:21:32.576Z,21.13
2022-11-24T06:24:35.187Z,20.85
2022-11-24T06:27:37.777Z,20.75
2022-11-24T06:30:40.290Z,20.80
2022-11-24T06:33:44.385Z,22.30
2022-11-24T06:36:47.070Z,20.67
2022-11-24T06:39:49.584Z,22.38
2022-11-24T06:42:52.707Z,23.23
2022-11-24T06:45:55.480Z,24.20
2022-11-24T06:49:02.525Z,23.42
2022-11-24T06:52:05.224Z,23.42
2022-11-24T06:55:09.783Z,22.50
2022-11-24T06:58:12.391Z,22.25
2022-11-24T07:01:33.555Z,22.43
2022-11-24T07:04:37.667Z,23.55
2022-11-24T07:07:41.015Z,21.85
2022-11-24T07:10:43.605Z,22.90
2022-11-24T07:13:56.679Z,22.42
2022-11-24T07:21:18.239Z,23.27
2022-11-24T07:24:27.095Z,21.73
2022-11-24T07:32:05.066Z,22.20
2022-11-24T07:36:23.630Z,21.13
2022-11-24T07:39:26.004Z,23.25
2022-11-24T07:42:31.168Z,22.58
2022-11-24T07:45:33.750Z,24.25
2022-11-24T07:48:36.487Z,24.58
2022-11-24T07:51:39.183Z,24.63
2022-11-24T07:54:42.995Z,25.58
2022-11-24T07:57:45.493Z,25.55
2022-11-24T08:00:56.572Z,24.45
2022-11-24T08:04:01.420Z,24.25
2022-11-24T08:07:05.689Z,24.53
2022-11-24T08:10:10.260Z,24.88
2022-11-24T08:13:12.765Z,25.45
2022-11-24T08:16:17.495Z,24.85
2022-11-24T08:19:21.693Z,23.23
2022-11-24T08:22:24.433Z,21.60
2022-11-24T08:25:32.554Z,19.77
2022-11-24T08:28:35.842Z,19.52
2022-11-24T08:31:39.171Z,21.73
2022-11-24T08:34:41.737Z,20.88
2022-11-24T08:37:44.365Z,21.97
2022-11-24T08:40:48.381Z,22.27
2022-11-24T08:43:51.227Z,24.00
2022-11-24T08:46:54.136Z,22.90
2022-11-24T08:49:56.731Z,23.58
2022-11-24T08:52:59.273Z,23.33
2022-11-24T08:56:04.372Z,23.75
2022-11-24T08:59:06.947Z,22.02
2022-11-24T09:02:15.422Z,23.83
2022-11-24T09:05:49.999Z,20.98
2022-11-24T09:08:40.745Z,20.23
2022-11-24T09:11:46.623Z,22.52
2022-11-24T09:14:52.201Z,22.08
2022-11-24T09:17:54.983Z,23.00
2022-11-24T09:21:06.927Z,21.35
2022-11-24T09:24:10.736Z,21.57
2022-11-24T09:27:14.734Z,21.15
2022-11-24T09:30:18.527Z,21.42
2022-11-24T09:33:21.853Z,19.70
2022-11-24T09:36:25.473Z,18.98
2022-11-24T09:39:27.955Z,20.87
2022-11-24T09:42:39.757Z,18.95
2022-11-24T09:46:04.906Z,19.13
2022-11-24T09:49:15.488Z,19.08
2022-11-24T09:52:22.391Z,18.65
2022-11-24T09:55:35.480Z,19.27
2022-11-24T09:58:45.258Z,20.30
2022-11-24T10:01:49.866Z,18.80
2022-11-24T10:04:54.776Z,19.65
2022-11-24T10:08:09.383Z,19.25
2022-11-24T10:11:18.834Z,19.83
2022-11-24T10:14:46.076Z,20.42
2022-11-24T10:18:09.360Z,20.25
2022-11-24T10:21:34.815Z,20.75
2022-11-24T10:25:03.171Z,17.48
2022-11-24T10:28:12.499Z,20.03
2022-11-24T10:31:29.642Z,18.70
2022-11-24T10:34:35.291Z,18.77
2022-11-24T10:37:45.820Z,20.13
2022-11-24T10:40:59.612Z,17.88
2022-11-24T10:44:04.892Z,18.53
2022-11-24T10:47:18.034Z,18.33
2022-11-24T10:50:25.277Z,18.45
2022-11-24T10:53:48.305Z,18.23
2022-11-24T10:56:53.068Z,19.17
2022-11-24T10:59:56.436Z,19.70
2022-11-24T11:03:17.459Z,20.50
2022-11-24T11:06:22.816Z,20.25
2022-11-24T11:09:25.423Z,19.00
2022-11-24T11:12:45.714Z,20.38
2022-11-24T11:15:48.471Z,21.60
2022-11-24T11:18:53.055Z,22.27
2022-11-24T11:22:01.222Z,19.77
2022-11-24T11:25:18.725Z,21.50
2022-11-24T11:28:28.507Z,20.33
2022-11-24T11:31:34.401Z,16.73
2022-11-24T11:34:38.776Z,18.02
2022-11-24T11:37:42.287Z,18.77
2022-11-24T11:40:47.473Z,20.83
2022-11-24T11:43:57.474Z,21.67
2022-11-24T11:47:05.685Z,18.97
2022-11-24T11:50:16.172Z,17.80
2022-11-24T11:53:27.591Z,17.63
2022-11-24T11:56:33.291Z,17.83
2022-11-24T11:59:51.389Z,17.83
2022-11-24T12:03:19.521Z,18.60
2022-11-24T12:06:36.512Z,18.10
2022-11-24T12:09:56.447Z,18.85
2022-11-24T12:13:10.276Z,18.35
2022-11-24T12:16:25.210Z,17.10
2022-11-24T12:19:38.604Z,17.23
2022-11-24T12:22:49.841Z,17.38
2022-11-24T12:26:00.394Z,15.85
2022-11-24T12:29:24.010Z,18.02
2022-11-24T12:32:41.791Z,16.75
2022-11-24T12:35:46.567Z,15.43
2022-11-24T12:38:58.331Z,16.27
2022-11-24T12:42:09.911Z,17.17
2022-11-24T12:45:16.985Z,16.92
2022-11-24T12:48:32.670Z,15.80
2022-11-24T12:51:38.111Z,16.60
2022-11-24T12:54:42.200Z,15.75
2022-11-24T12:57:52.048Z,16.20
2022-11-24T13:01:14.676Z,16.58
2022-11-24T13:04:32.964Z,15.60
2022-11-24T13:07:42.871Z,16.43
2022-11-24T13:10:57.211Z,16.05
2022-11-24T13:14:04.696Z,15.18
2022-11-24T13:17:41.996Z,16.80
2022-11-24T13:20:47.486Z,17.42
2022-11-24T13:23:56.650Z,15.27
2022-11-24T13:27:41.334Z,15.35
2022-11-24T13:31:07.361Z,16.35
2022-11-24T13:34:43.099Z,14.48
2022-11-24T13:37:51.455Z,13.95
2022-11-24T13:41:13.304Z,14.47
2022-11-24T13:44:25.498Z,14.68
2022-11-24T13:47:36.705Z,14.70
2022-11-24T13:51:17.302Z,14.77
2022-11-24T13:54:21.294Z,14.75
2022-11-24T13:57:34.083Z,14.07
2022-11-24T14:01:11.490Z,15.35
2022-11-24T14:04:34.974Z,15.77
2022-11-24T14:07:37.693Z,15.18
2022-11-24T14:10:43.044Z,14.75
2022-11-24T14:13:45.502Z,15.87
2022-11-24T14:16:49.311Z,16.30
2022-11-24T14:19:54.106Z,16.92
2022-11-24T14:22:56.624Z,16.25
2022-11-24T14:25:59.127Z,14.70
2022-11-24T14:29:07.085Z,14.07
2022-11-24T14:32:16.860Z,15.05
2022-11-24T14:35:22.779Z,14.40
2022-11-24T14:38:25.522Z,15.68
2022-11-24T14:41:28.507Z,16.80
2022-11-24T14:44:35.155Z,16.97
2022-11-24T14:47:45.181Z,15.48
2022-11-24T14:50:47.908Z,15.52
2022-11-24T14:53:53.110Z,13.30
2022-11-24T14:56:57.848Z,13.98
2022-11-24T15:00:17.134Z,18.63
2022-11-24T15:03:20.932Z,20.02
2022-11-24T15:06:23.750Z,17.50
2022-11-24T15:09:31.356Z,18.85
2022-11-24T15:12:40.738Z,14.38
2022-11-24T15:15:48.367Z,14.13
2022-11-24T15:18:59.225Z,14.93
2022-11-24T15:22:26.841Z,15.07
2022-11-24T15:25:32.469Z,14.30
2022-11-24T15:28:37.766Z,15.00
2022-11-24T15:31:44.192Z,19.40
2022-11-24T15:34:51.619Z,20.85
2022-11-24T15:37:54.148Z,20.33
2022-11-24T15:40:59.589Z,22.35
2022-11-24T15:44:02.080Z,20.88
2022-11-24T15:47:04.604Z,22.50
2022-11-24T15:50:09.928Z,21.40
2022-11-24T15:53:18.216Z,20.15
2022-11-24T15:56:24.376Z,19.50
2022-11-24T15:59:27.044Z,17.10
2022-11-24T16:02:29.600Z,17.77
2022-11-24T16:05:33.719Z,20.73
2022-11-24T16:08:36.110Z,22.20
2022-11-24T16:11:38.748Z,20.88
2022-11-24T16:14:41.309Z,17.23
2022-11-24T16:17:43.803Z,15.07
2022-11-24T16:20:47.746Z,15.75
2022-11-24T16:23:50.264Z,15.80
2022-11-24T16:26:52.758Z,15.10
2022-11-24T16:29:55.247Z,14.13
2022-11-24T16:32:57.725Z,14.33
2022-11-24T16:36:01.516Z,16.27
2022-11-24T16:39:04.240Z,14.15
2022-11-24T16:42:06.939Z,15.20
2022-11-24T16:45:11.732Z,16.83
2022-11-24T16:48:14.223Z,17.10
2022-11-24T16:51:19.599Z,15.32
2022-11-24T16:54:22.239Z,16.60
2022-11-24T16:57:24.656Z,15.23
2022-11-24T17:00:27.392Z,15.63
2022-11-24T17:03:30.695Z,19.83
2022-11-24T17:06:35.127Z,18.70
2022-11-24T17:09:40.756Z,16.67
2022-11-24T17:12:44.837Z,17.98
2022-11-24T17:15:52.553Z,17.38
2022-11-24T17:18:58.589Z,15.97
2022-11-24T17:22:02.651Z,17.20
2022-11-24T17:25:06.283Z,16.98
2022-11-24T17:28:08.863Z,18.83
2022-11-24T17:31:18.149Z,20.92
2022-11-24T17:34:21.088Z,18.93
2022-11-24T17:37:25.015Z,21.33
2022-11-24T17:40:29.425Z,23.25
2022-11-24T17:43:32.687Z,19.25
2022-11-24T17:46:37.079Z,13.00
2022-11-24T17:49:40.351Z,15.70
2022-11-24T17:52:44.206Z,18.35
2022-11-24T17:55:46.860Z,19.73
2022-11-24T17:58:54.213Z,17.45
2022-11-24T18:01:58.082Z,13.82
2022-11-24T18:05:00.648Z,13.50
2022-11-24T18:08:05.079Z,13.98
2022-11-24T18:11:09.612Z,13.60
2022-11-24T18:14:12.745Z,13.70
2022-11-24T18:17:15.534Z,13.35
2022-11-24T18:20:19.419Z,13.77
2022-11-24T18:23:24.227Z,12.98
2022-11-24T18:26:26.900Z,16.45
2022-11-24T18:29:31.645Z,24.88
2022-11-24T18:32:34.230Z,20.23
2022-11-24T18:35:39.629Z,14.07
2022-11-24T18:38:44.449Z,13.40
2022-11-24T18:41:47.236Z,13.80
2022-11-24T18:44:53.973Z,12.43
2022-11-24T18:47:56.971Z,12.90
2022-11-24T18:50:59.495Z,13.47
2022-11-24T18:54:05.342Z,13.05
2022-11-24T18:57:08.228Z,13.88
2022-11-24T19:00:12.464Z,12.60
2022-11-24T19:03:15.185Z,12.82
2022-11-24T19:06:20.185Z,12.73
2022-11-24T19:09:25.513Z,12.52
2022-11-24T19:12:28.361Z,11.90
2022-11-24T19:15:32.901Z,14.45
2022-11-24T19:18:35.655Z,16.85
2022-11-24T19:21:40.424Z,26.30
2022-11-24T19:24:46.549Z,18.17
2022-11-24T19:27:49.371Z,14.43
2022-11-24T19:30:52.068Z,16.55
2022-11-24T19:33:57.924Z,15.90
2022-11-24T19:37:00.637Z,11.73
2022-11-24T19:40:06.396Z,11.57
2022-11-24T19:43:09.102Z,13.55
2022-11-24T19:46:14.310Z,15.18
2022-11-24T19:49:16.824Z,14.15
2022-11-24T19:52:19.822Z,15.40
2022-11-24T19:55:23.871Z,15.00
2022-11-24T19:58:26.450Z,12.63
2022-11-24T20:01:31.597Z,11.40
2022-11-24T20:04:38.280Z,9.65
2022-11-24T20:07:41.106Z,11.67
2022-11-24T20:10:45.408Z,10.52
2022-11-24T20:13:49.760Z,11.20
2022-11-24T20:16:52.238Z,11.50
2022-11-24T20:19:54.989Z,11.38
2022-11-24T20:22:57.600Z,11.90
2022-11-24T20:26:05.530Z,12.50
2022-11-24T20:29:13.011Z,12.05
2022-11-24T20:32:19.491Z,10.60
2022-11-24T20:35:22.415Z,14.25
2022-11-24T20:38:24.894Z,17.70
2022-11-24T20:41:30.900Z,17.67
2022-11-24T20:44:33.741Z,15.05
2022-11-24T20:47:36.720Z,15.20
2022-11-24T20:50:39.470Z,15.85
2022-11-24T20:53:42.396Z,14.33
2022-11-24T20:56:47.815Z,13.85
2022-11-24T20:59:52.300Z,13.43
2022-11-24T21:02:57.640Z,13.43
2022-11-24T21:06:00.982Z,13.73
2022-11-24T21:09:04.944Z,15.10
2022-11-24T21:12:09.072Z,13.15
2022-11-24T21:15:11.638Z,12.75
2022-11-24T21:18:14.433Z,13.27
2022-11-24T21:21:19.572Z,13.00
2022-11-24T21:24:22.183Z,14.73
2022-11-24T21:27:27.082Z,14.63
2022-11-24T21:30:29.859Z,14.10
2022-11-24T21:33:32.897Z,12.30
2022-11-24T21:36:35.820Z,12.27
2022-11-24T21:39:38.307Z,11.27
2022-11-24T21:42:42.161Z,11.82
2022-11-24T21:45:44.609Z,12.63
2022-11-24T21:48:47.095Z,12.95
2022-11-24T21:51:55.172Z,12.48
2022-11-24T21:54:57.782Z,12.40
2022-11-24T21:58:01.557Z,12.38
2022-11-24T22:01:06.267Z,11.40
2022-11-24T22:04:09.490Z,11.35
2022-11-24T22:07:12.665Z,11.77
2022-11-24T22:10:15.377Z,11.43
2022-11-24T22:13:19.450Z,10.88
2022-11-24T22:16:24.734Z,11.40
2022-11-24T22:19:27.267Z,10.65
2022-11-24T22:22:29.703Z,11.32
2022-11-24T22:25:33.478Z,11.50
2022-11-24T22:28:37.872Z,11.82
2022-11-24T22:31:40.368Z,11.70
2022-11-24T22:34:42.866Z,12.40
2022-11-24T22:37:45.332Z,12.45
2022-11-24T22:40:47.943Z,13.17
2022-11-24T22:43:52.143Z,16.40
2022-11-24T22:46:54.534Z,14.00
2022-11-24T22:49:58.047Z,12.70
2022-11-24T22:53:00.423Z,12.32
2022-11-24T22:56:03.874Z,13.10
2022-11-24T22:59:07.878Z,13.93
2022-11-24T23:02:10.289Z,13.05
2022-11-24T23:05:16.738Z,12.13
2022-11-24T23:08:21.831Z,15.68
2022-11-24T23:11:31.656Z,15.77
2022-11-24T23:14:36.849Z,17.02
2022-11-24T23:17:39.524Z,14.93
2022-11-24T23:20:41.919Z,13.35
2022-11-24T23:23:44.925Z,13.50
2022-11-24T23:26:47.347Z,13.87
2022-11-24T23:29:51.556Z,15.40
2022-11-24T23:32:55.863Z,14.07
2022-11-24T23:36:01.085Z,11.90
2022-11-24T23:39:04.532Z,12.10
2022-11-24T23:42:06.986Z,13.13
2022-11-24T23:45:11.230Z,12.45
2022-11-24T23:48:13.636Z,13.18
2022-11-24T23:51:18.149Z,12.82
2022-11-24T23:54:21.338Z,12.07
2022-11-24T23:57:23.844Z,13.30
